Barranquilla, Colombia

2:52 AM COT en Agosto 22, 2014 (GMT -0500)
Ernesto Cortissoz | Change Station
CLOSE
Current Station
Aeropuerto
Location: Barranquilla,
Altura: 98 ft
Estaciones meteorológicas cercanas

Alt 98 ft 10.88 °N, 74.78 °W | Updated 52 minutes ago

Scattered Clouds
Nubes dispersas
81 ° F
Sensación térmica 87 ° F
N
12
Viento Variable Viento desde NNE

Hoy
Alta -- | Baja -- ° F
--% Posibilidad de precipitaciones
Ayer
Alta -- | Baja -- ° F
Precip. -- pul
5:49 AM 6:14 PM
Creciente menguante, 9% visible
Presión 29.81 pul
Visibilidad 6.2 Millas
Nubes Nubes dispersas 1500 ft
Índice de calor 87 ° F
Punto de rocío 77 ° F
Humedad 89%
Precipitaciones 0.00 pul
Espesor de la nieve No disponible.
UV 0 de una escala de 12
Polen No disponible.
Calidad del aire No disponible.
Flu Activity No disponible.
METAR SKBQ 220700Z 02010KT 9999 SCT015 27/25 A2981

More Conditions Fewer Conditions

Presión 29.81 pul
Visibilidad 6.2 Millas
Nubes Nubes dispersas 1500 ft
Índice de calor 87 ° F
Punto de rocío 77 ° F
Humedad 89%
Precipitaciones 0.00 pul
Espesor de la nieve No disponible.
UV 0 de una escala de 12
Polen No disponible.
Calidad del aire No disponible.
Flu Activity No disponible.
METAR SKBQ 220700Z 02010KT 9999 SCT015 27/25 A2981

More Conditions Fewer Conditions

10-Day Weather Forecast

Almanac

Astronomía

Aug. 22, 2014 Salida Puesta
Hora real 5:49 AM COT 6:14 PM COT
Crepúsculo civil 5:27 AM COT 6:35 PM COT
Crepúsculo náutico 5:02 AM COT 7:01 PM COT
Crepúsculo astronómico 4:37 AM COT 7:26 PM COT
Luna 3:23 AM COT 4:11 PM COT
Horas de luz 13h 08m
Horas de luz
12h 24m
Tomorrow will be 0m 33s shorter.
Creciente menguante, 9% of the Moon is Illuminated
Hoy
Creciente menguante
Ago 25
Nueva
Sep 2
Cuarto creciente
Sep 8
Luna llena
Sep 15
Cuarto menguante

Extremos de ayer

Máximos del país Bajas del país

Community

WunderPhotos

Upload Photos

1,746,131 ¡fotos cargadas!

Nearby

Calidad del aire

Not available.

Grosos de nieve

Not available.

Actividad de terremotos

Ciudad Distance Mag. Tiempo y dato
No hay informes recientes de la actividad sísmica.
Magnitud mínima muestra es 2,5.

Temperaturas de aguas costeras

Lugar Temperatura
Sin partes meteorológicos de las estaciones

Estaciones meteorológicas cercanas